Aeroporto :
LOGIN :

Iscrizione | Disclaimer

   EN    FR    IT 

 










Sommario :    VFR   VFR Marginale   IFR   IFR Intensivo   IFR Molto Intensivo
Visibilità : 
Base nubi : 
>= 8 km
>= 3000ft
5 / 8 km
1000 / 3000 ft
1500m / 5 km
500 / 1000 ft
800 / 1500m
200 / 500 ft
< 800m
< 200 ft
Simboli :   Temporali  Nebbia  Neve Forte  Precipitazioni Forti  Vento > 20 kt
SIGMETs :   Varie  Temporali  Ghiacco  Turbolenza  Onda orograficha  Ceneri Vulcaniche







- Altitudine del aeroporto : 268 ft
- Codice IATA : BFS
- Carte del aeroporto


EGAA - Belfast Aldergrove

ULTIMO METAR :
  • 190150Z 09002KT 0800 R25/0350 R07/P1500 FG NSC 08/07 Q1030

METARs OBSOLETI :
  • 190120Z 09002KT 0350 R25/0600 R07/P1500 FG NSC 07/06 Q1031
  • 190050Z 08002KT 9999 R25/0450 MIFG NSC 08/07 Q1031
  • 190020Z VRB02KT 9999 R25/0300 MIFG NSC 08/07 Q1031
  • 182350Z 10002KT 0450 FG NSC 09/08 Q1031
  • 182320Z 07004KT CAVOK 08/07 Q1031
  • 182250Z 08002KT CAVOK 08/07 Q1031

TAF AMD TAF EGAA
Valido dal 19 a 00 ore il 20 a 00 ore UTC


190022Z 1900/1924 VRB04KT 9999 FEW030
BECMG 1900/1903 0400 FG BKN000
PROB40 1900/1908 0200
BECMG 1908/1911 CAVOK
PROB30 1911/1912 7000
Nessun NOTAM noto per questo aeroporto.



MetMap, La meteo Aeronautica in un colpo d'occhio ! - Copyright ORBIFLY Dicembre 2007 - Disclaimer

ORBIFLY MET'MAP TEAM :

Programmazione e sviluppo : Alexandra Zaïnal
Concezione e sviluppo : Baudouin d'Aumeries
Co-Programmazione e sviluppo : Marc-Olivier Méhu
Supporto tecnico e logistico : Manuel Goepfert
Aiuto per la traduzione : Arnaldo La Scala

Contatto : metmap@orbifly.com




FONTI E CREDITI :

   NOAA